sensor_id;sensor_type;location;lat;lon;timestamp;pressure;altitude;pressure_sealevel;temperature;humidity
7109;BME280;29079;41.930;25.558;2023-05-11T00:00:50;100117.84;;;11.16;83.87
7109;BME280;29079;41.930;25.558;2023-05-11T00:03:23;100108.22;;;10.36;82.52
7109;BME280;29079;41.930;25.558;2023-05-11T00:05:56;100109.44;;;10.43;84.33
7109;BME280;29079;41.930;25.558;2023-05-11T00:08:29;100109.19;;;10.46;80.61
7109;BME280;29079;41.930;25.558;2023-05-11T00:11:07;100115.78;;;9.59;85.70
7109;BME280;29079;41.930;25.558;2023-05-11T00:13:40;100107.09;;;10.27;87.39
7109;BME280;29079;41.930;25.558;2023-05-11T00:16:13;100106.34;;;10.14;83.11
7109;BME280;29079;41.930;25.558;2023-05-11T00:18:46;100106.66;;;10.44;84.94
7109;BME280;29079;41.930;25.558;2023-05-11T00:21:20;100115.53;;;9.98;83.92
7109;BME280;29079;41.930;25.558;2023-05-11T00:23:54;100122.97;;;10.17;84.62
7109;BME280;29079;41.930;25.558;2023-05-11T00:26:28;100123.69;;;10.19;88.68
7109;BME280;29079;41.930;25.558;2023-05-11T00:29:01;100126.13;;;10.22;85.31
7109;BME280;29079;41.930;25.558;2023-05-11T00:31:34;100125.78;;;9.69;85.54
7109;BME280;29079;41.930;25.558;2023-05-11T00:34:07;100124.16;;;9.90;87.87
7109;BME280;29079;41.930;25.558;2023-05-11T00:36:40;100131.22;;;9.43;85.55
7109;BME280;29079;41.930;25.558;2023-05-11T00:39:13;100135.38;;;9.23;84.00
7109;BME280;29079;41.930;25.558;2023-05-11T00:41:48;100126.53;;;8.85;84.88
7109;BME280;29079;41.930;25.558;2023-05-11T00:44:21;100126.97;;;8.92;84.79
7109;BME280;29079;41.930;25.558;2023-05-11T00:46:53;100129.09;;;8.87;86.20
7109;BME280;29079;41.930;25.558;2023-05-11T00:49:27;100133.44;;;9.01;85.32
7109;BME280;29079;41.930;25.558;2023-05-11T00:51:59;100137.03;;;8.63;85.16
7109;BME280;29079;41.930;25.558;2023-05-11T00:54:34;100135.13;;;8.65;85.98
7109;BME280;29079;41.930;25.558;2023-05-11T00:57:08;100137.06;;;8.50;85.19
7109;BME280;29079;41.930;25.558;2023-05-11T00:59:41;100143.06;;;8.26;85.29
7109;BME280;29079;41.930;25.558;2023-05-11T01:02:14;100134.81;;;8.18;86.79
7109;BME280;29079;41.930;25.558;2023-05-11T01:04:48;100134.25;;;8.00;87.51
7109;BME280;29079;41.930;25.558;2023-05-11T01:07:22;100133.41;;;8.38;86.77
7109;BME280;29079;41.930;25.558;2023-05-11T01:09:59;100134.91;;;8.16;87.27
7109;BME280;29079;41.930;25.558;2023-05-11T01:12:35;100129.03;;;7.98;87.91
7109;BME280;29079;41.930;25.558;2023-05-11T01:15:10;100124.06;;;8.32;86.88
7109;BME280;29079;41.930;25.558;2023-05-11T01:17:45;100124.91;;;8.33;86.59
7109;BME280;29079;41.930;25.558;2023-05-11T01:20:22;100127.22;;;8.37;87.18
7109;BME280;29079;41.930;25.558;2023-05-11T01:28:48;100132.34;;;8.41;86.54
7109;BME280;29079;41.930;25.558;2023-05-11T01:31:26;100129.38;;;8.58;87.60
7109;BME280;29079;41.930;25.558;2023-05-11T01:34:02;100133.59;;;8.35;86.42
7109;BME280;29079;41.930;25.558;2023-05-11T01:36:37;100133.81;;;8.19;87.40
7109;BME280;29079;41.930;25.558;2023-05-11T01:39:11;100131.06;;;7.95;88.16
7109;BME280;29079;41.930;25.558;2023-05-11T01:41:45;100137.78;;;8.13;86.27
7109;BME280;29079;41.930;25.558;2023-05-11T01:44:22;100134.16;;;7.48;89.40
7109;BME280;29079;41.930;25.558;2023-05-11T01:46:58;100138.88;;;7.71;92.52
7109;BME280;29079;41.930;25.558;2023-05-11T01:49:32;100136.22;;;7.71;88.45
7109;BME280;29079;41.930;25.558;2023-05-11T01:52:09;100136.25;;;7.83;88.16
7109;BME280;29079;41.930;25.558;2023-05-11T01:54:42;100123.63;;;8.13;90.04
7109;BME280;29079;41.930;25.558;2023-05-11T01:57:16;100132.22;;;7.91;87.27
7109;BME280;29079;41.930;25.558;2023-05-11T01:59:50;100120.19;;;7.85;88.77
7109;BME280;29079;41.930;25.558;2023-05-11T02:02:26;100125.09;;;7.91;88.98
7109;BME280;29079;41.930;25.558;2023-05-11T02:05:01;100124.91;;;8.07;87.36
7109;BME280;29079;41.930;25.558;2023-05-11T02:07:34;100127.84;;;7.90;89.22
7109;BME280;29079;41.930;25.558;2023-05-11T02:10:09;100132.41;;;7.75;88.72
7109;BME280;29079;41.930;25.558;2023-05-11T02:12:42;100125.94;;;7.79;88.50
7109;BME280;29079;41.930;25.558;2023-05-11T02:15:15;100129.88;;;7.73;89.75
7109;BME280;29079;41.930;25.558;2023-05-11T02:17:50;100128.75;;;8.03;88.63
7109;BME280;29079;41.930;25.558;2023-05-11T02:20:24;100120.66;;;8.05;87.69
7109;BME280;29079;41.930;25.558;2023-05-11T02:22:58;100124.59;;;8.12;87.70
7109;BME280;29079;41.930;25.558;2023-05-11T02:25:32;100123.97;;;8.47;87.34
7109;BME280;29079;41.930;25.558;2023-05-11T02:28:05;100119.81;;;8.56;86.42
7109;BME280;29079;41.930;25.558;2023-05-11T02:30:40;100123.06;;;8.72;86.45
7109;BME280;29079;41.930;25.558;2023-05-11T02:33:18;100119.81;;;8.93;87.80
7109;BME280;29079;41.930;25.558;2023-05-11T02:35:53;100123.22;;;8.45;86.51
7109;BME280;29079;41.930;25.558;2023-05-11T02:38:29;100122.78;;;8.51;86.36
7109;BME280;29079;41.930;25.558;2023-05-11T02:41:03;100122.69;;;8.52;87.66
7109;BME280;29079;41.930;25.558;2023-05-11T02:43:38;100113.44;;;8.45;90.48
7109;BME280;29079;41.930;25.558;2023-05-11T02:46:14;100112.81;;;9.40;90.78
7109;BME280;29079;41.930;25.558;2023-05-11T02:48:50;100116.88;;;9.09;86.64
7109;BME280;29079;41.930;25.558;2023-05-11T02:51:25;100114.56;;;9.88;85.28
7109;BME280;29079;41.930;25.558;2023-05-11T02:54:00;100116.59;;;9.84;85.44
7109;BME280;29079;41.930;25.558;2023-05-11T02:56:34;100123.47;;;9.75;90.20
7109;BME280;29079;41.930;25.558;2023-05-11T02:59:07;100122.09;;;10.05;88.15
7109;BME280;29079;41.930;25.558;2023-05-11T03:01:40;100124.59;;;9.84;89.86
7109;BME280;29079;41.930;25.558;2023-05-11T03:04:15;100128.41;;;8.72;90.67
7109;BME280;29079;41.930;25.558;2023-05-11T03:06:48;100127.66;;;8.70;93.54
7109;BME280;29079;41.930;25.558;2023-05-11T03:09:22;100122.72;;;9.62;90.98
7109;BME280;29079;41.930;25.558;2023-05-11T03:11:55;100118.81;;;10.02;88.70
7109;BME280;29079;41.930;25.558;2023-05-11T03:14:29;100123.63;;;9.85;88.54
7109;BME280;29079;41.930;25.558;2023-05-11T03:17:03;100130.28;;;9.80;90.05
7109;BME280;29079;41.930;25.558;2023-05-11T03:19:39;100125.38;;;10.20;90.76
7109;BME280;29079;41.930;25.558;2023-05-11T03:22:13;100131.47;;;9.40;90.96
7109;BME280;29079;41.930;25.558;2023-05-11T03:24:46;100129.63;;;9.16;90.91
7109;BME280;29079;41.930;25.558;2023-05-11T03:27:20;100134.06;;;9.29;91.86
7109;BME280;29079;41.930;25.558;2023-05-11T03:29:53;100139.63;;;9.85;88.34
7109;BME280;29079;41.930;25.558;2023-05-11T03:32:27;100128.66;;;10.13;90.89
7109;BME280;29079;41.930;25.558;2023-05-11T03:35:02;100137.13;;;9.35;90.98
7109;BME280;29079;41.930;25.558;2023-05-11T03:37:35;100135.72;;;9.78;88.09
7109;BME280;29079;41.930;25.558;2023-05-11T03:40:09;100141.06;;;9.54;90.01
7109;BME280;29079;41.930;25.558;2023-05-11T03:42:43;100144.44;;;9.80;91.26
7109;BME280;29079;41.930;25.558;2023-05-11T03:45:17;100147.63;;;9.50;89.56
7109;BME280;29079;41.930;25.558;2023-05-11T03:47:51;100147.22;;;9.79;88.92
7109;BME280;29079;41.930;25.558;2023-05-11T03:50:27;100151.81;;;9.41;89.51
7109;BME280;29079;41.930;25.558;2023-05-11T03:53:01;100151.13;;;9.26;91.17
7109;BME280;29079;41.930;25.558;2023-05-11T03:55:34;100156.00;;;9.08;93.09
7109;BME280;29079;41.930;25.558;2023-05-11T03:58:09;100147.03;;;9.57;93.89
7109;BME280;29079;41.930;25.558;2023-05-11T04:00:42;100147.50;;;9.27;92.02
7109;BME280;29079;41.930;25.558;2023-05-11T04:03:15;100148.63;;;9.96;91.48
7109;BME280;29079;41.930;25.558;2023-05-11T04:05:50;100147.38;;;9.88;89.19
7109;BME280;29079;41.930;25.558;2023-05-11T04:08:23;100158.69;;;9.92;89.66
7109;BME280;29079;41.930;25.558;2023-05-11T04:10:56;100154.72;;;9.73;93.00
7109;BME280;29079;41.930;25.558;2023-05-11T04:13:29;100158.88;;;9.78;90.17
7109;BME280;29079;41.930;25.558;2023-05-11T04:16:02;100144.84;;;9.51;94.09
7109;BME280;29079;41.930;25.558;2023-05-11T04:18:35;100161.66;;;9.76;92.19
7109;BME280;29079;41.930;25.558;2023-05-11T04:21:09;100162.38;;;9.78;91.03
7109;BME280;29079;41.930;25.558;2023-05-11T04:23:42;100164.63;;;9.60;89.91
7109;BME280;29079;41.930;25.558;2023-05-11T04:26:15;100166.94;;;9.40;89.97
7109;BME280;29079;41.930;25.558;2023-05-11T04:28:48;100169.94;;;9.60;92.49
7109;BME280;29079;41.930;25.558;2023-05-11T04:31:21;100161.22;;;10.05;92.08
7109;BME280;29079;41.930;25.558;2023-05-11T04:33:54;100161.75;;;10.10;91.03
7109;BME280;29079;41.930;25.558;2023-05-11T04:36:29;100157.22;;;9.88;91.87
7109;BME280;29079;41.930;25.558;2023-05-11T04:39:02;100155.06;;;10.04;90.39
7109;BME280;29079;41.930;25.558;2023-05-11T04:41:38;100169.47;;;9.90;88.77
7109;BME280;29079;41.930;25.558;2023-05-11T04:44:11;100171.03;;;9.93;90.10
7109;BME280;29079;41.930;25.558;2023-05-11T04:46:44;100168.03;;;10.09;90.56
7109;BME280;29079;41.930;25.558;2023-05-11T04:49:17;100170.94;;;10.06;89.11
7109;BME280;29079;41.930;25.558;2023-05-11T04:51:51;100168.69;;;10.24;89.53
7109;BME280;29079;41.930;25.558;2023-05-11T04:54:24;100176.59;;;9.54;91.13
7109;BME280;29079;41.930;25.558;2023-05-11T04:56:58;100168.44;;;9.80;90.11
7109;BME280;29079;41.930;25.558;2023-05-11T04:59:31;100175.63;;;9.31;91.80
7109;BME280;29079;41.930;25.558;2023-05-11T05:02:04;100175.13;;;10.33;88.62
7109;BME280;29079;41.930;25.558;2023-05-11T05:04:37;100169.97;;;10.54;91.20
7109;BME280;29079;41.930;25.558;2023-05-11T05:07:11;100173.72;;;10.04;89.10
7109;BME280;29079;41.930;25.558;2023-05-11T05:09:44;100168.97;;;10.43;89.95
7109;BME280;29079;41.930;25.558;2023-05-11T05:12:17;100168.25;;;10.53;87.88
7109;BME280;29079;41.930;25.558;2023-05-11T05:14:50;100169.22;;;10.40;89.22
7109;BME280;29079;41.930;25.558;2023-05-11T05:17:24;100171.19;;;10.61;87.82
7109;BME280;29079;41.930;25.558;2023-05-11T05:19:56;100163.06;;;10.40;89.06
7109;BME280;29079;41.930;25.558;2023-05-11T05:22:31;100170.75;;;10.32;88.90
7109;BME280;29079;41.930;25.558;2023-05-11T05:25:04;100167.13;;;10.33;91.05
7109;BME280;29079;41.930;25.558;2023-05-11T05:27:37;100170.19;;;10.96;87.25
7109;BME280;29079;41.930;25.558;2023-05-11T05:30:10;100172.66;;;10.76;87.23
7109;BME280;29079;41.930;25.558;2023-05-11T05:32:43;100168.56;;;11.27;86.06
7109;BME280;29079;41.930;25.558;2023-05-11T05:35:17;100168.28;;;10.75;88.82
7109;BME280;29079;41.930;25.558;2023-05-11T05:37:51;100170.75;;;11.22;86.98
7109;BME280;29079;41.930;25.558;2023-05-11T05:40:24;100167.69;;;10.72;87.24
7109;BME280;29079;41.930;25.558;2023-05-11T05:42:57;100175.94;;;10.57;89.53
7109;BME280;29079;41.930;25.558;2023-05-11T05:45:30;100169.69;;;11.02;86.37
7109;BME280;29079;41.930;25.558;2023-05-11T05:48:03;100177.16;;;11.31;85.50
7109;BME280;29079;41.930;25.558;2023-05-11T05:50:36;100178.56;;;11.03;86.15
7109;BME280;29079;41.930;25.558;2023-05-11T05:53:11;100180.75;;;11.09;85.81
7109;BME280;29079;41.930;25.558;2023-05-11T05:55:43;100181.25;;;11.03;87.81
7109;BME280;29079;41.930;25.558;2023-05-11T05:58:16;100182.66;;;11.18;86.94
7109;BME280;29079;41.930;25.558;2023-05-11T06:00:49;100183.41;;;11.20;85.02
7109;BME280;29079;41.930;25.558;2023-05-11T06:03:23;100185.88;;;10.89;85.90
7109;BME280;29079;41.930;25.558;2023-05-11T06:06:00;100192.03;;;11.12;84.87
7109;BME280;29079;41.930;25.558;2023-05-11T06:08:34;100187.09;;;10.96;85.47
7109;BME280;29079;41.930;25.558;2023-05-11T06:11:07;100183.22;;;10.89;86.97
7109;BME280;29079;41.930;25.558;2023-05-11T06:13:40;100190.34;;;10.55;87.30
7109;BME280;29079;41.930;25.558;2023-05-11T06:16:13;100188.03;;;10.61;86.57
7109;BME280;29079;41.930;25.558;2023-05-11T06:18:46;100187.69;;;11.55;86.02
7109;BME280;29079;41.930;25.558;2023-05-11T06:21:19;100183.03;;;11.13;85.20
7109;BME280;29079;41.930;25.558;2023-05-11T06:23:53;100184.66;;;10.82;85.69
7109;BME280;29079;41.930;25.558;2023-05-11T06:26:26;100185.50;;;11.05;85.26
7109;BME280;29079;41.930;25.558;2023-05-11T06:28:59;100189.47;;;11.11;83.72
7109;BME280;29079;41.930;25.558;2023-05-11T06:31:32;100182.59;;;10.97;84.06
7109;BME280;29079;41.930;25.558;2023-05-11T06:34:05;100188.03;;;11.07;83.36
7109;BME280;29079;41.930;25.558;2023-05-11T06:36:39;100193.53;;;11.81;84.45
7109;BME280;29079;41.930;25.558;2023-05-11T06:39:14;100201.84;;;11.99;81.28
7109;BME280;29079;41.930;25.558;2023-05-11T06:41:50;100192.41;;;11.95;83.43
7109;BME280;29079;41.930;25.558;2023-05-11T06:44:25;100196.78;;;11.96;80.24
7109;BME280;29079;41.930;25.558;2023-05-11T06:46:58;100198.31;;;11.78;82.85
7109;BME280;29079;41.930;25.558;2023-05-11T06:49:31;100199.13;;;11.46;80.25
7109;BME280;29079;41.930;25.558;2023-05-11T06:52:04;100184.53;;;11.50;82.92
7109;BME280;29079;41.930;25.558;2023-05-11T06:54:38;100185.81;;;11.67;80.27
7109;BME280;29079;41.930;25.558;2023-05-11T06:57:11;100190.28;;;11.78;83.44
7109;BME280;29079;41.930;25.558;2023-05-11T06:59:45;100189.63;;;11.97;82.16
7109;BME280;29079;41.930;25.558;2023-05-11T07:02:18;100186.81;;;12.19;82.82
7109;BME280;29079;41.930;25.558;2023-05-11T07:04:50;100192.34;;;12.07;79.82
7109;BME280;29079;41.930;25.558;2023-05-11T07:07:24;100192.88;;;11.68;80.00
7109;BME280;29079;41.930;25.558;2023-05-11T07:09:58;100188.91;;;11.51;83.12
7109;BME280;29079;41.930;25.558;2023-05-11T07:12:31;100188.00;;;11.18;80.83
7109;BME280;29079;41.930;25.558;2023-05-11T07:15:04;100187.03;;;11.30;79.87
7109;BME280;29079;41.930;25.558;2023-05-11T07:17:37;100189.66;;;11.42;79.95
7109;BME280;29079;41.930;25.558;2023-05-11T07:20:10;100193.69;;;11.36;82.15
7109;BME280;29079;41.930;25.558;2023-05-11T07:22:43;100195.16;;;11.73;79.66
7109;BME280;29079;41.930;25.558;2023-05-11T07:25:18;100196.28;;;11.91;78.65
7109;BME280;29079;41.930;25.558;2023-05-11T07:27:51;100199.53;;;12.06;82.23
7109;BME280;29079;41.930;25.558;2023-05-11T07:30:24;100187.56;;;11.57;80.20
7109;BME280;29079;41.930;25.558;2023-05-11T07:32:57;100185.69;;;12.22;80.34
7109;BME280;29079;41.930;25.558;2023-05-11T07:35:30;100181.53;;;12.29;80.53
7109;BME280;29079;41.930;25.558;2023-05-11T07:38:03;100183.34;;;12.08;78.60
7109;BME280;29079;41.930;25.558;2023-05-11T07:40:40;100179.31;;;11.48;82.12
7109;BME280;29079;41.930;25.558;2023-05-11T07:43:13;100183.47;;;12.06;78.44
7109;BME280;29079;41.930;25.558;2023-05-11T07:45:46;100181.97;;;12.13;79.73
7109;BME280;29079;41.930;25.558;2023-05-11T07:48:19;100180.97;;;12.35;77.09
7109;BME280;29079;41.930;25.558;2023-05-11T07:50:52;100172.88;;;12.47;78.24
7109;BME280;29079;41.930;25.558;2023-05-11T07:53:25;100169.66;;;12.22;75.60
7109;BME280;29079;41.930;25.558;2023-05-11T07:55:59;100172.31;;;12.22;75.13
7109;BME280;29079;41.930;25.558;2023-05-11T07:58:34;100173.75;;;12.05;75.94
7109;BME280;29079;41.930;25.558;2023-05-11T08:01:07;100173.69;;;12.16;75.19
7109;BME280;29079;41.930;25.558;2023-05-11T08:03:39;100178.72;;;12.31;75.82
7109;BME280;29079;41.930;25.558;2023-05-11T08:06:14;100181.44;;;12.19;73.51
7109;BME280;29079;41.930;25.558;2023-05-11T08:08:48;100174.66;;;12.15;74.89
7109;BME280;29079;41.930;25.558;2023-05-11T08:11:22;100172.31;;;12.43;72.70
7109;BME280;29079;41.930;25.558;2023-05-11T08:13:55;100173.50;;;12.29;71.93
7109;BME280;29079;41.930;25.558;2023-05-11T08:16:29;100168.00;;;12.62;77.16
7109;BME280;29079;41.930;25.558;2023-05-11T08:19:02;100160.59;;;12.65;75.37
7109;BME280;29079;41.930;25.558;2023-05-11T08:21:35;100159.69;;;12.55;74.81
7109;BME280;29079;41.930;25.558;2023-05-11T08:24:08;100160.09;;;12.81;76.87
7109;BME280;29079;41.930;25.558;2023-05-11T08:26:42;100155.84;;;13.29;75.52
7109;BME280;29079;41.930;25.558;2023-05-11T08:29:15;100154.91;;;13.50;74.19
7109;BME280;29079;41.930;25.558;2023-05-11T08:31:48;100158.28;;;13.52;69.07
7109;BME280;29079;41.930;25.558;2023-05-11T08:34:21;100162.94;;;13.69;73.26
7109;BME280;29079;41.930;25.558;2023-05-11T08:36:54;100153.59;;;13.34;66.92
7109;BME280;29079;41.930;25.558;2023-05-11T08:39:27;100144.16;;;13.69;71.75
7109;BME280;29079;41.930;25.558;2023-05-11T08:42:18;100145.59;;;13.54;65.28
7109;BME280;29079;41.930;25.558;2023-05-11T08:44:54;100147.28;;;13.55;66.85
7109;BME280;29079;41.930;25.558;2023-05-11T08:47:28;100142.47;;;13.49;67.31
7109;BME280;29079;41.930;25.558;2023-05-11T08:50:02;100143.63;;;13.66;64.89
7109;BME280;29079;41.930;25.558;2023-05-11T08:52:34;100145.88;;;13.90;67.06
7109;BME280;29079;41.930;25.558;2023-05-11T08:55:08;100137.91;;;14.08;67.49
7109;BME280;29079;41.930;25.558;2023-05-11T08:57:43;100125.91;;;14.12;66.08
7109;BME280;29079;41.930;25.558;2023-05-11T09:00:17;100128.31;;;14.05;65.65
7109;BME280;29079;41.930;25.558;2023-05-11T09:02:50;100129.47;;;13.93;66.51
7109;BME280;29079;41.930;25.558;2023-05-11T09:05:24;100128.75;;;13.91;66.58
7109;BME280;29079;41.930;25.558;2023-05-11T09:07:59;100125.38;;;13.89;69.24
7109;BME280;29079;41.930;25.558;2023-05-11T09:10:32;100127.22;;;13.88;69.08
7109;BME280;29079;41.930;25.558;2023-05-11T09:13:06;100113.91;;;14.06;66.70
7109;BME280;29079;41.930;25.558;2023-05-11T09:15:40;100121.91;;;14.26;65.62
7109;BME280;29079;41.930;25.558;2023-05-11T09:18:13;100120.63;;;14.30;67.85
7109;BME280;29079;41.930;25.558;2023-05-11T09:20:46;100121.09;;;14.16;63.97
7109;BME280;29079;41.930;25.558;2023-05-11T09:23:23;100111.38;;;14.15;66.72
7109;BME280;29079;41.930;25.558;2023-05-11T09:25:56;100113.19;;;14.14;64.70
7109;BME280;29079;41.930;25.558;2023-05-11T09:28:31;100107.09;;;14.22;65.74
7109;BME280;29079;41.930;25.558;2023-05-11T09:31:06;100111.59;;;14.31;64.02
7109;BME280;29079;41.930;25.558;2023-05-11T09:33:40;100111.56;;;14.41;62.61
7109;BME280;29079;41.930;25.558;2023-05-11T09:36:21;100096.72;;;14.47;66.47
7109;BME280;29079;41.930;25.558;2023-05-11T09:38:54;100099.28;;;14.38;67.49
7109;BME280;29079;41.930;25.558;2023-05-11T09:41:33;100101.84;;;14.30;66.67
7109;BME280;29079;41.930;25.558;2023-05-11T09:44:08;100098.53;;;14.46;65.85
7109;BME280;29079;41.930;25.558;2023-05-11T09:46:42;100095.03;;;14.73;64.92
7109;BME280;29079;41.930;25.558;2023-05-11T09:49:15;100092.16;;;14.85;63.78
7109;BME280;29079;41.930;25.558;2023-05-11T09:51:49;100089.72;;;14.63;62.07
7109;BME280;29079;41.930;25.558;2023-05-11T09:54:32;100084.75;;;14.59;66.66
7109;BME280;29079;41.930;25.558;2023-05-11T09:57:21;100081.44;;;14.00;60.64
7109;BME280;29079;41.930;25.558;2023-05-11T09:59:56;100075.75;;;14.13;62.10
7109;BME280;29079;41.930;25.558;2023-05-11T10:02:30;100074.09;;;14.12;61.68
7109;BME280;29079;41.930;25.558;2023-05-11T10:05:10;100072.09;;;14.04;61.02
7109;BME280;29079;41.930;25.558;2023-05-11T10:07:43;100074.59;;;14.25;65.16
7109;BME280;29079;41.930;25.558;2023-05-11T10:10:16;100079.16;;;14.15;61.63
7109;BME280;29079;41.930;25.558;2023-05-11T10:12:49;100066.09;;;14.30;63.12
7109;BME280;29079;41.930;25.558;2023-05-11T10:15:24;100064.91;;;14.42;64.74
7109;BME280;29079;41.930;25.558;2023-05-11T10:17:59;100067.66;;;14.60;62.04
7109;BME280;29079;41.930;25.558;2023-05-11T10:20:32;100067.91;;;14.67;61.70
7109;BME280;29079;41.930;25.558;2023-05-11T10:23:05;100059.75;;;14.68;64.16
7109;BME280;29079;41.930;25.558;2023-05-11T10:25:38;100058.22;;;14.84;60.97
7109;BME280;29079;41.930;25.558;2023-05-11T10:28:12;100054.72;;;15.01;62.10
7109;BME280;29079;41.930;25.558;2023-05-11T10:30:46;100052.03;;;15.19;64.66
7109;BME280;29079;41.930;25.558;2023-05-11T10:33:19;100049.56;;;15.08;61.78
7109;BME280;29079;41.930;25.558;2023-05-11T10:35:52;100052.03;;;15.01;59.95
7109;BME280;29079;41.930;25.558;2023-05-11T10:38:26;100047.34;;;15.03;62.39
7109;BME280;29079;41.930;25.558;2023-05-11T10:41:00;100050.56;;;14.89;61.20
7109;BME280;29079;41.930;25.558;2023-05-11T10:43:45;100046.09;;;14.79;60.97
7109;BME280;29079;41.930;25.558;2023-05-11T10:46:29;100044.47;;;14.87;60.41
7109;BME280;29079;41.930;25.558;2023-05-11T10:49:14;100037.38;;;15.13;61.08
7109;BME280;29079;41.930;25.558;2023-05-11T10:52:05;100023.00;;;15.23;60.34
7109;BME280;29079;41.930;25.558;2023-05-11T10:54:45;100027.31;;;15.34;60.94
7109;BME280;29079;41.930;25.558;2023-05-11T10:57:31;100025.06;;;15.29;60.84
7109;BME280;29079;41.930;25.558;2023-05-11T11:03:15;100029.84;;;15.35;61.92
7109;BME280;29079;41.930;25.558;2023-05-11T11:05:48;100028.50;;;15.39;63.61
7109;BME280;29079;41.930;25.558;2023-05-11T11:08:21;100039.84;;;15.25;61.58
7109;BME280;29079;41.930;25.558;2023-05-11T11:10:54;100030.69;;;15.36;61.33
7109;BME280;29079;41.930;25.558;2023-05-11T11:13:27;100028.47;;;15.31;60.47
7109;BME280;29079;41.930;25.558;2023-05-11T11:16:07;100024.38;;;15.27;59.61
7109;BME280;29079;41.930;25.558;2023-05-11T11:18:41;100023.31;;;15.20;59.32
7109;BME280;29079;41.930;25.558;2023-05-11T11:21:14;100027.69;;;15.21;58.32
7109;BME280;29079;41.930;25.558;2023-05-11T11:24:07;100028.78;;;15.28;61.41
7109;BME280;29079;41.930;25.558;2023-05-11T11:26:47;100025.38;;;15.26;57.83
7109;BME280;29079;41.930;25.558;2023-05-11T11:29:21;100020.53;;;15.29;62.54
7109;BME280;29079;41.930;25.558;2023-05-11T11:31:54;100013.22;;;15.40;65.75
7109;BME280;29079;41.930;25.558;2023-05-11T11:34:32;100012.38;;;15.39;60.46
7109;BME280;29079;41.930;25.558;2023-05-11T11:37:07;100017.31;;;15.26;57.92
7109;BME280;29079;41.930;25.558;2023-05-11T11:39:44;100016.44;;;15.43;63.71
7109;BME280;29079;41.930;25.558;2023-05-11T11:42:18;100020.31;;;15.23;57.90
7109;BME280;29079;41.930;25.558;2023-05-11T11:48:07;99993.38;;;15.41;56.51
7109;BME280;29079;41.930;25.558;2023-05-11T11:50:43;99994.34;;;15.58;57.24
7109;BME280;29079;41.930;25.558;2023-05-11T11:56:08;99983.13;;;15.80;57.00
7109;BME280;29079;41.930;25.558;2023-05-11T11:59:00;99982.84;;;15.92;56.96
7109;BME280;29079;41.930;25.558;2023-05-11T12:01:36;99978.94;;;15.86;58.28
7109;BME280;29079;41.930;25.558;2023-05-11T12:04:24;99976.88;;;15.80;62.83
7109;BME280;29079;41.930;25.558;2023-05-11T12:07:06;99972.91;;;15.66;59.42
7109;BME280;29079;41.930;25.558;2023-05-11T12:09:39;99966.72;;;15.74;59.55
7109;BME280;29079;41.930;25.558;2023-05-11T12:12:15;99968.75;;;15.72;57.98
7109;BME280;29079;41.930;25.558;2023-05-11T12:14:48;99963.97;;;15.83;57.38
7109;BME280;29079;41.930;25.558;2023-05-11T12:17:24;99956.28;;;15.97;55.39
7109;BME280;29079;41.930;25.558;2023-05-11T12:20:10;99955.84;;;16.10;54.41
7109;BME280;29079;41.930;25.558;2023-05-11T12:22:45;99961.50;;;15.98;61.87
7109;BME280;29079;41.930;25.558;2023-05-11T12:25:19;99966.25;;;15.78;54.19
7109;BME280;29079;41.930;25.558;2023-05-11T12:27:53;99963.63;;;15.87;55.78
7109;BME280;29079;41.930;25.558;2023-05-11T12:30:29;99959.53;;;16.09;60.17
7109;BME280;29079;41.930;25.558;2023-05-11T12:33:02;99955.63;;;15.95;54.21
7109;BME280;29079;41.930;25.558;2023-05-11T12:35:35;99949.56;;;16.01;60.25
7109;BME280;29079;41.930;25.558;2023-05-11T12:38:12;99945.06;;;16.10;58.67
7109;BME280;29079;41.930;25.558;2023-05-11T12:40:46;99944.84;;;16.03;56.00
7109;BME280;29079;41.930;25.558;2023-05-11T12:43:19;99938.66;;;16.02;58.24
7109;BME280;29079;41.930;25.558;2023-05-11T12:45:53;99941.16;;;16.04;55.62
7109;BME280;29079;41.930;25.558;2023-05-11T12:48:25;99933.03;;;15.88;54.92
7109;BME280;29079;41.930;25.558;2023-05-11T12:50:58;99931.34;;;15.87;54.38
7109;BME280;29079;41.930;25.558;2023-05-11T12:53:34;99935.06;;;15.94;57.68
7109;BME280;29079;41.930;25.558;2023-05-11T12:56:08;99920.63;;;15.95;58.43
7109;BME280;29079;41.930;25.558;2023-05-11T12:58:41;99930.41;;;16.04;54.59
7109;BME280;29079;41.930;25.558;2023-05-11T13:01:14;99930.91;;;15.99;57.06
7109;BME280;29079;41.930;25.558;2023-05-11T13:03:47;99917.31;;;16.09;55.49
7109;BME280;29079;41.930;25.558;2023-05-11T13:06:21;99916.66;;;16.15;56.28
7109;BME280;29079;41.930;25.558;2023-05-11T13:08:55;99926.59;;;16.15;55.36
7109;BME280;29079;41.930;25.558;2023-05-11T13:11:28;99920.56;;;15.87;55.82
7109;BME280;29079;41.930;25.558;2023-05-11T13:14:13;99915.56;;;16.00;57.54
7109;BME280;29079;41.930;25.558;2023-05-11T13:16:51;99914.41;;;16.02;58.11
7109;BME280;29079;41.930;25.558;2023-05-11T13:19:27;99917.66;;;16.06;60.23
7109;BME280;29079;41.930;25.558;2023-05-11T13:22:00;99919.69;;;16.12;58.32
7109;BME280;29079;41.930;25.558;2023-05-11T13:24:35;99912.50;;;15.87;53.01
7109;BME280;29079;41.930;25.558;2023-05-11T13:27:08;99910.34;;;15.90;54.35
7109;BME280;29079;41.930;25.558;2023-05-11T13:29:41;99910.06;;;15.75;53.60
7109;BME280;29079;41.930;25.558;2023-05-11T13:32:14;99907.34;;;16.01;61.64
7109;BME280;29079;41.930;25.558;2023-05-11T13:34:47;99917.97;;;16.11;58.59
7109;BME280;29079;41.930;25.558;2023-05-11T13:37:20;99905.19;;;16.05;57.11
7109;BME280;29079;41.930;25.558;2023-05-11T13:39:54;99902.66;;;16.04;53.63
7109;BME280;29079;41.930;25.558;2023-05-11T13:42:28;99903.97;;;15.99;55.40
7109;BME280;29079;41.930;25.558;2023-05-11T13:45:00;99908.00;;;15.95;55.19
7109;BME280;29079;41.930;25.558;2023-05-11T13:47:34;99897.91;;;15.97;53.77